Time;durP1;ratioP1;P1;durP2;ratioP2;P2;SDS_P1;SDS_P2;PMS_P1;PMS_P2;Temp;Humidity;BMP_temperature;BMP_pressure;BME280_temperature;BME280_humidity;BME280_pressure;Samples;Min_cycle;Max_cycle;Signal;HPM_P1;HPM_P2
2022/06/29 00:00:37;;;;;;;0.40;0.20;;;18.70;99.90;;;;;;5069239;28;20705;-66
2022/06/29 00:03:04;;;;;;;0.40;0.20;;;18.70;99.90;;;;;;5069686;28;21007;-66
2022/06/29 00:05:30;;;;;;;0.40;0.40;;;18.70;99.90;;;;;;5069037;28;20538;-66
2022/06/29 00:07:56;;;;;;;0.40;0.40;;;18.60;99.90;;;;;;5070301;28;20391;-66
2022/06/29 00:10:23;;;;;;;0.40;0.20;;;18.70;99.90;;;;;;5068811;28;20445;-66
2022/06/29 00:12:49;;;;;;;0.40;0.20;;;18.70;99.90;;;;;;5070406;28;20453;-67
2022/06/29 00:15:17;;;;;;;0.40;0.20;;;18.60;99.90;;;;;;5069972;28;20396;-66
2022/06/29 00:17:43;;;;;;;0.40;0.30;;;18.60;99.90;;;;;;5069887;28;20396;-66
2022/06/29 00:20:10;;;;;;;0.40;0.30;;;18.60;99.90;;;;;;5069596;28;20473;-66
2022/06/29 00:22:36;;;;;;;0.40;0.20;;;18.50;99.90;;;;;;5069283;28;20537;-66
2022/06/29 00:25:02;;;;;;;0.40;0.20;;;18.50;99.90;;;;;;5070426;28;20383;-67
2022/06/29 00:27:29;;;;;;;0.40;0.30;;;18.50;99.90;;;;;;5068793;28;20418;-66
2022/06/29 00:29:54;;;;;;;0.60;0.60;;;18.40;99.90;;;;;;5069810;28;20879;-66
2022/06/29 00:32:20;;;;;;;0.40;0.20;;;18.40;99.90;;;;;;5069060;28;20408;-66
2022/06/29 00:34:46;;;;;;;0.40;0.30;;;18.30;99.90;;;;;;5070552;28;20481;-67
2022/06/29 00:37:11;;;;;;;0.40;0.30;;;18.30;99.90;;;;;;5073193;28;20404;-66
2022/06/29 00:39:37;;;;;;;0.90;0.80;;;18.30;99.90;;;;;;5072964;28;20391;-66
2022/06/29 00:42:05;;;;;;;0.40;0.30;;;18.20;99.90;;;;;;5072615;28;20904;-66
2022/06/29 00:44:31;;;;;;;0.40;0.20;;;18.20;99.90;;;;;;5072962;28;20375;-66
2022/06/29 00:46:59;;;;;;;0.40;0.30;;;18.20;99.90;;;;;;5073443;28;20414;-66
2022/06/29 00:49:26;;;;;;;0.40;0.20;;;18.20;99.90;;;;;;5073249;28;20466;-66
2022/06/29 00:52:15;;;;;;;0.40;0.20;;;18.10;99.90;;;;;;5069942;28;20377;-66
2022/06/29 00:54:56;;;;;;;0.40;0.30;;;18.20;99.90;;;;;;5050094;28;20405;-66
2022/06/29 00:57:27;;;;;;;0.40;0.20;;;18.10;99.90;;;;;;5054037;28;20389;-66
2022/06/29 00:59:58;;;;;;;0.40;0.20;;;18.10;99.90;;;;;;5072053;28;20384;-66
2022/06/29 01:02:28;;;;;;;0.40;0.30;;;18.00;99.90;;;;;;5072477;28;20884;-66
2022/06/29 01:04:54;;;;;;;0.40;0.30;;;17.90;99.90;;;;;;5073751;28;20813;-66
2022/06/29 01:07:23;;;;;;;0.40;0.20;;;17.80;99.90;;;;;;5072535;28;20498;-67
2022/06/29 01:09:49;;;;;;;0.50;0.40;;;17.90;99.90;;;;;;5073103;28;20400;-66
2022/06/29 01:12:15;;;;;;;0.40;0.40;;;17.80;99.90;;;;;;5073792;28;20466;-66
2022/06/29 01:14:45;;;;;;;0.40;0.30;;;17.70;99.90;;;;;;5072838;28;20891;-67
2022/06/29 01:17:11;;;;;;;0.40;0.30;;;17.70;99.90;;;;;;5070093;28;20556;-67
2022/06/29 01:19:38;;;;;;;0.40;0.30;;;17.70;99.90;;;;;;5071544;28;20410;-67
2022/06/29 01:22:14;;;;;;;0.40;0.30;;;17.60;99.90;;;;;;5072793;28;20390;-67
2022/06/29 01:24:40;;;;;;;0.40;0.28;;;17.50;99.90;;;;;;5070865;28;20431;-66
2022/06/29 01:27:06;;;;;;;0.40;0.40;;;17.50;99.90;;;;;;5070896;28;20407;-66
2022/06/29 01:29:33;;;;;;;0.40;0.40;;;17.50;99.90;;;;;;5069913;28;20399;-66
2022/06/29 01:31:59;;;;;;;0.40;0.30;;;17.50;99.90;;;;;;5071718;28;20794;-67
2022/06/29 01:34:29;;;;;;;0.40;0.30;;;17.40;99.90;;;;;;5069845;28;20801;-66
2022/06/29 01:36:55;;;;;;;0.50;0.50;;;17.30;99.90;;;;;;5070073;28;20392;-66
2022/06/29 01:39:20;;;;;;;0.60;0.50;;;17.30;99.90;;;;;;5070834;28;20368;-66
2022/06/29 01:41:46;;;;;;;0.60;0.60;;;17.30;99.90;;;;;;5069106;28;20392;-66
2022/06/29 01:44:12;;;;;;;0.40;0.40;;;17.30;99.90;;;;;;5070854;28;20402;-67
2022/06/29 01:46:37;;;;;;;0.40;0.30;;;17.30;99.90;;;;;;5065184;28;20394;-66
2022/06/29 01:49:03;;;;;;;0.40;0.20;;;17.20;99.90;;;;;;5064395;28;20405;-67
2022/06/29 01:51:29;;;;;;;0.40;0.30;;;17.20;99.90;;;;;;5067156;28;20436;-67
2022/06/29 01:53:54;;;;;;;0.40;0.27;;;17.10;99.90;;;;;;5069285;28;20463;-66
2022/06/29 01:56:20;;;;;;;0.40;0.30;;;17.10;99.90;;;;;;5069740;28;20938;-66
2022/06/29 01:58:49;;;;;;;0.70;0.70;;;17.00;99.90;;;;;;5069238;28;20391;-66
2022/06/29 02:01:15;;;;;;;0.40;0.20;;;16.90;99.90;;;;;;5070458;28;20384;-66
2022/06/29 02:03:40;;;;;;;0.40;0.30;;;17.00;99.90;;;;;;5070131;28;20768;-66
2022/06/29 02:06:06;;;;;;;0.40;0.30;;;16.90;99.90;;;;;;5070597;28;20411;-66
2022/06/29 02:08:32;;;;;;;0.40;0.30;;;16.90;99.90;;;;;;5068989;28;20936;-66
2022/06/29 02:11:00;;;;;;;0.40;0.20;;;16.90;99.90;;;;;;5070830;28;20486;-66
2022/06/29 02:13:26;;;;;;;0.40;0.30;;;16.80;99.90;;;;;;5059879;28;20389;-66
2022/06/29 02:15:52;;;;;;;0.40;0.30;;;16.80;99.90;;;;;;5066094;28;20399;-66
2022/06/29 02:18:18;;;;;;;0.40;0.40;;;16.70;99.90;;;;;;5067281;28;21051;-66
2022/06/29 02:20:44;;;;;;;0.40;0.20;;;16.70;99.90;;;;;;5065713;28;20402;-66
2022/06/29 02:23:10;;;;;;;0.40;0.20;;;16.80;99.90;;;;;;5068502;28;20392;-67
2022/06/29 02:25:36;;;;;;;0.40;0.20;;;16.70;99.90;;;;;;5069458;28;20391;-67
2022/06/29 02:28:01;;;;;;;0.40;0.40;;;16.70;99.90;;;;;;5068248;28;20747;-67
2022/06/29 02:35:56;;;;;;;0.40;0.30;;;16.60;99.90;;;;;;5070222;28;20428;-67
2022/06/29 02:38:22;;;;;;;0.40;0.30;;;16.70;99.90;;;;;;5067739;28;20392;-67
2022/06/29 02:40:48;;;;;;;0.40;0.20;;;16.70;99.90;;;;;;5068828;28;20423;-67
2022/06/29 02:43:14;;;;;;;0.87;0.50;;;16.70;99.90;;;;;;5070634;28;20430;-67
2022/06/29 02:45:39;;;;;;;0.40;0.30;;;16.70;99.90;;;;;;5068538;28;20388;-67
2022/06/29 02:48:05;;;;;;;0.80;0.80;;;16.60;99.90;;;;;;5066519;28;20478;-67
2022/06/29 02:50:31;;;;;;;0.40;0.20;;;16.60;99.90;;;;;;5070599;28;20494;-67
2022/06/29 02:52:56;;;;;;;0.40;0.20;;;16.70;99.90;;;;;;5075602;28;20732;-67
2022/06/29 02:55:22;;;;;;;0.40;0.20;;;16.60;99.90;;;;;;5069585;28;20944;-67
2022/06/29 02:57:48;;;;;;;0.40;0.20;;;16.60;99.90;;;;;;5070136;28;20782;-67
2022/06/29 03:00:14;;;;;;;0.40;0.20;;;16.70;99.90;;;;;;5070909;28;20384;-67
2022/06/29 03:02:40;;;;;;;0.40;0.30;;;16.60;99.90;;;;;;5069904;28;20426;-67
2022/06/29 03:05:06;;;;;;;0.40;0.20;;;16.60;99.90;;;;;;5068828;28;20511;-67
2022/06/29 03:07:32;;;;;;;0.40;0.30;;;16.50;99.90;;;;;;5069863;28;20418;-67
2022/06/29 03:09:58;;;;;;;0.40;0.22;;;16.50;99.90;;;;;;5070538;28;20752;-67
2022/06/29 03:12:23;;;;;;;0.80;0.80;;;16.40;99.90;;;;;;5069294;28;20380;-67
2022/06/29 03:14:49;;;;;;;0.40;0.20;;;16.50;99.90;;;;;;5070663;28;20391;-67
2022/06/29 03:17:15;;;;;;;0.40;0.20;;;16.50;99.90;;;;;;5070952;28;20849;-67
2022/06/29 03:19:41;;;;;;;0.40;0.20;;;16.40;99.90;;;;;;5052175;28;20395;-67
2022/06/29 03:22:06;;;;;;;0.40;0.40;;;16.40;99.90;;;;;;5070518;28;20467;-68
2022/06/29 03:24:32;;;;;;;0.40;0.20;;;16.40;99.90;;;;;;5070228;28;20474;-67
2022/06/29 03:26:58;;;;;;;0.40;0.30;;;16.50;99.90;;;;;;5069976;28;20495;-67
2022/06/29 03:29:23;;;;;;;0.40;0.40;;;16.40;99.90;;;;;;5068103;28;20380;-67
2022/06/29 03:31:49;;;;;;;0.40;0.40;;;16.40;99.90;;;;;;5058856;28;20459;-67
2022/06/29 03:34:15;;;;;;;0.40;0.30;;;16.30;99.90;;;;;;5061240;28;20466;-67
2022/06/29 03:36:41;;;;;;;0.40;0.20;;;16.20;99.90;;;;;;5068393;28;21169;-67
2022/06/29 03:39:06;;;;;;;0.40;0.20;;;16.20;99.90;;;;;;5070038;28;20463;-67
2022/06/29 03:41:32;;;;;;;0.40;0.30;;;16.20;99.90;;;;;;5070137;28;20388;-67
2022/06/29 03:43:57;;;;;;;0.40;0.20;;;16.20;99.90;;;;;;5070670;28;20388;-66
2022/06/29 03:46:23;;;;;;;0.40;0.30;;;16.10;99.90;;;;;;5069182;28;20407;-67
2022/06/29 03:48:49;;;;;;;0.40;0.30;;;16.00;99.90;;;;;;5070214;28;20589;-67
2022/06/29 03:51:15;;;;;;;0.60;0.60;;;16.00;99.90;;;;;;5070960;28;20429;-67
2022/06/29 03:53:41;;;;;;;0.40;0.30;;;16.00;99.90;;;;;;5081505;28;20396;-67
2022/06/29 03:56:06;;;;;;;0.40;0.30;;;16.00;99.90;;;;;;5070578;28;20417;-67
2022/06/29 03:58:32;;;;;;;0.40;0.30;;;16.00;99.90;;;;;;5069047;28;20388;-67
2022/06/29 04:00:58;;;;;;;0.40;0.20;;;16.00;99.90;;;;;;5069530;28;20502;-67
2022/06/29 04:03:23;;;;;;;0.40;0.22;;;16.10;99.90;;;;;;5069535;28;20454;-66
2022/06/29 04:05:49;;;;;;;0.40;0.20;;;16.10;99.90;;;;;;5070260;28;20424;-67
2022/06/29 04:08:16;;;;;;;0.40;0.33;;;16.00;99.90;;;;;;5070361;28;20396;-67
2022/06/29 04:10:42;;;;;;;0.40;0.20;;;16.10;99.90;;;;;;5069180;28;20405;-67
2022/06/29 04:13:07;;;;;;;0.40;0.20;;;16.10;99.90;;;;;;5070323;28;20388;-67
2022/06/29 04:15:34;;;;;;;0.40;0.40;;;16.10;99.90;;;;;;5069290;28;20387;-67
2022/06/29 04:18:00;;;;;;;0.40;0.20;;;16.10;99.90;;;;;;5052124;28;20401;-67
2022/06/29 04:23:10;;;;;;;0.40;0.23;;;16.00;99.90;;;;;;5070489;28;20395;-67
2022/06/29 04:25:36;;;;;;;0.40;0.30;;;16.10;99.90;;;;;;5069592;28;20380;-67
2022/06/29 04:28:02;;;;;;;0.40;0.20;;;16.10;99.90;;;;;;5069717;28;20412;-67
2022/06/29 04:30:27;;;;;;;0.40;0.30;;;16.20;99.90;;;;;;5069595;28;20407;-67
2022/06/29 04:32:54;;;;;;;0.40;0.20;;;16.30;99.90;;;;;;5070119;28;20411;-68
2022/06/29 04:35:20;;;;;;;0.40;0.30;;;16.40;99.90;;;;;;5068010;28;20396;-67
2022/06/29 04:37:46;;;;;;;0.73;0.73;;;16.40;99.90;;;;;;5070537;28;20434;-67
2022/06/29 04:40:12;;;;;;;0.70;0.70;;;16.50;99.90;;;;;;5070059;28;20875;-67
2022/06/29 04:42:38;;;;;;;0.40;0.30;;;16.50;99.90;;;;;;5069201;28;21045;-66
2022/06/29 04:45:04;;;;;;;0.70;0.60;;;16.60;99.90;;;;;;5069814;28;20384;-67
2022/06/29 04:47:30;;;;;;;0.40;0.20;;;16.70;99.90;;;;;;5068881;28;20775;-67
2022/06/29 04:49:55;;;;;;;0.40;0.40;;;16.70;99.90;;;;;;5069509;28;20467;-67
2022/06/29 04:52:21;;;;;;;0.40;0.30;;;16.80;99.90;;;;;;5077454;28;20429;-67
2022/06/29 04:54:46;;;;;;;0.40;0.20;;;16.80;99.90;;;;;;5073461;28;20391;-67
2022/06/29 04:57:12;;;;;;;0.40;0.30;;;16.90;99.90;;;;;;5068792;28;20388;-67
2022/06/29 04:59:38;;;;;;;0.50;0.50;;;16.90;99.90;;;;;;5068959;28;21009;-67
2022/06/29 05:02:03;;;;;;;0.40;0.30;;;16.80;99.90;;;;;;5067731;28;20752;-67
2022/06/29 05:04:29;;;;;;;0.40;0.30;;;16.90;99.90;;;;;;5070489;28;20896;-67
2022/06/29 05:06:55;;;;;;;0.40;0.20;;;16.90;99.90;;;;;;5078053;28;20410;-67
2022/06/29 05:09:20;;;;;;;0.40;0.40;;;16.90;99.90;;;;;;5070280;28;20392;-67
2022/06/29 05:11:46;;;;;;;0.40;0.40;;;16.90;99.90;;;;;;5069363;28;20419;-67
2022/06/29 05:14:12;;;;;;;0.40;0.20;;;17.00;99.90;;;;;;5051735;28;20445;-67
2022/06/29 05:16:38;;;;;;;0.40;0.30;;;17.00;99.90;;;;;;5068660;28;21046;-67
2022/06/29 05:19:04;;;;;;;0.40;0.40;;;17.10;99.90;;;;;;5069372;28;20392;-67
2022/06/29 05:21:30;;;;;;;0.40;0.30;;;17.20;99.90;;;;;;5070408;28;20388;-67
2022/06/29 05:23:57;;;;;;;0.40;0.20;;;17.20;99.90;;;;;;5072583;28;20388;-67
2022/06/29 05:26:24;;;;;;;0.40;0.30;;;17.30;99.90;;;;;;5071995;28;20507;-67
2022/06/29 05:28:51;;;;;;;0.40;0.40;;;17.30;99.90;;;;;;5073032;28;20400;-67
2022/06/29 05:31:19;;;;;;;0.40;0.20;;;17.40;99.90;;;;;;5072089;28;20395;-66
2022/06/29 05:33:45;;;;;;;0.40;0.20;;;17.40;99.90;;;;;;5072892;28;20506;-68
2022/06/29 05:36:11;;;;;;;0.40;0.20;;;17.40;99.90;;;;;;5072770;28;20466;-68
2022/06/29 05:38:37;;;;;;;0.40;0.30;;;17.50;99.90;;;;;;5053753;28;20884;-67
2022/06/29 05:41:04;;;;;;;0.40;0.30;;;17.70;99.90;;;;;;5072645;28;20875;-68
2022/06/29 05:43:30;;;;;;;0.40;0.20;;;17.70;99.90;;;;;;5071855;28;20446;-67
2022/06/29 05:45:56;;;;;;;0.40;0.30;;;17.80;99.90;;;;;;5072162;28;20505;-67
2022/06/29 05:48:22;;;;;;;0.40;0.20;;;17.80;99.90;;;;;;5058460;28;20778;-67
2022/06/29 05:50:48;;;;;;;0.40;0.20;;;18.00;99.90;;;;;;5072557;28;20387;-67
2022/06/29 05:53:14;;;;;;;0.40;0.20;;;18.00;99.90;;;;;;5072246;28;20892;-67
2022/06/29 05:55:40;;;;;;;0.40;0.20;;;18.00;99.90;;;;;;5072164;28;20392;-67
2022/06/29 05:58:06;;;;;;;0.40;0.30;;;18.00;99.90;;;;;;5071630;28;20487;-67
2022/06/29 06:00:32;;;;;;;0.40;0.20;;;18.10;99.90;;;;;;5071223;28;20562;-67
2022/06/29 06:02:57;;;;;;;0.40;0.20;;;18.30;99.90;;;;;;5072711;28;20404;-67
2022/06/29 06:05:23;;;;;;;0.40;0.20;;;18.30;99.90;;;;;;5070312;28;20897;-67
2022/06/29 06:07:49;;;;;;;0.40;0.20;;;18.30;99.90;;;;;;5072348;28;20407;-68
2022/06/29 06:10:14;;;;;;;0.40;0.20;;;18.40;99.90;;;;;;5072406;28;20549;-68
2022/06/29 06:12:40;;;;;;;0.40;0.20;;;18.40;99.90;;;;;;5071658;28;20383;-69
2022/06/29 06:15:07;;;;;;;0.40;0.30;;;18.40;99.90;;;;;;5072342;28;20398;-68
2022/06/29 06:17:33;;;;;;;0.57;0.57;;;18.50;99.90;;;;;;5070748;28;20391;-67
2022/06/29 06:19:59;;;;;;;0.40;0.30;;;18.60;99.90;;;;;;5071979;28;20441;-67
2022/06/29 06:22:25;;;;;;;0.40;0.30;;;18.70;99.90;;;;;;5070974;28;20400;-67
2022/06/29 06:24:50;;;;;;;0.40;0.30;;;18.70;99.90;;;;;;5071997;28;20402;-67
2022/06/29 06:27:17;;;;;;;0.40;0.20;;;18.80;99.90;;;;;;5071181;28;20414;-67
2022/06/29 06:29:43;;;;;;;0.40;0.20;;;18.90;99.90;;;;;;5070160;28;20453;-67
2022/06/29 06:32:09;;;;;;;0.40;0.40;;;19.00;99.90;;;;;;5071282;28;20395;-69
2022/06/29 06:34:35;;;;;;;0.40;0.30;;;19.10;99.90;;;;;;5070200;28;20396;-69
2022/06/29 06:37:01;;;;;;;0.40;0.30;;;19.10;99.90;;;;;;5071719;28;20403;-68
2022/06/29 06:39:27;;;;;;;0.40;0.20;;;19.20;99.90;;;;;;5069780;28;20392;-68
2022/06/29 06:41:53;;;;;;;0.40;0.20;;;19.30;99.90;;;;;;5054129;28;20485;-68
2022/06/29 06:44:19;;;;;;;0.40;0.30;;;19.40;99.90;;;;;;5071461;28;20420;-67
2022/06/29 06:46:48;;;;;;;1.00;1.00;;;19.50;99.90;;;;;;5064570;28;20505;-68
2022/06/29 06:49:15;;;;;;;0.40;0.30;;;19.50;99.90;;;;;;5052017;28;20436;-68
2022/06/29 06:51:41;;;;;;;0.40;0.30;;;19.60;99.90;;;;;;5055713;28;20389;-68
2022/06/29 06:54:07;;;;;;;0.70;0.70;;;19.60;99.90;;;;;;5075834;28;20469;-68
2022/06/29 06:56:32;;;;;;;0.40;0.20;;;19.70;99.90;;;;;;5063472;28;20755;-68
2022/06/29 06:58:58;;;;;;;0.40;0.30;;;19.80;99.90;;;;;;5070149;28;20384;-68
2022/06/29 07:01:24;;;;;;;0.40;0.30;;;19.90;99.90;;;;;;5069769;28;20933;-67
2022/06/29 07:03:50;;;;;;;0.40;0.30;;;19.90;99.90;;;;;;5071364;28;20430;-68
2022/06/29 07:06:16;;;;;;;0.40;0.20;;;20.00;99.90;;;;;;5070042;28;20407;-67
2022/06/29 07:08:42;;;;;;;0.40;0.20;;;20.10;99.90;;;;;;5066363;28;20462;-68
2022/06/29 07:11:08;;;;;;;0.70;0.70;;;20.20;99.90;;;;;;5064104;28;20497;-67
2022/06/29 07:13:34;;;;;;;0.40;0.30;;;20.30;99.90;;;;;;5060345;28;20408;-67
2022/06/29 07:16:03;;;;;;;0.40;0.30;;;20.40;99.90;;;;;;5070560;28;20395;-68
2022/06/29 07:18:29;;;;;;;0.43;0.35;;;20.60;99.90;;;;;;5070568;28;20383;-68
2022/06/29 07:20:55;;;;;;;0.40;0.30;;;20.60;99.90;;;;;;5066659;28;20449;-69
2022/06/29 07:23:21;;;;;;;0.40;0.30;;;20.60;99.90;;;;;;5069989;28;20788;-67
2022/06/29 07:25:47;;;;;;;0.40;0.30;;;20.70;99.90;;;;;;5067466;28;20929;-68
2022/06/29 07:28:12;;;;;;;0.40;0.30;;;20.70;99.90;;;;;;5066744;28;20423;-68
2022/06/29 07:30:38;;;;;;;0.40;0.30;;;20.80;99.90;;;;;;5069495;28;20387;-68
2022/06/29 07:33:04;;;;;;;0.40;0.30;;;20.80;99.90;;;;;;5069708;28;20451;-68
2022/06/29 07:35:30;;;;;;;0.40;0.20;;;20.80;99.90;;;;;;5069597;28;20871;-68
2022/06/29 07:37:56;;;;;;;0.40;0.30;;;20.90;99.90;;;;;;5070706;28;20441;-69
2022/06/29 07:40:22;;;;;;;0.40;0.20;;;20.90;99.90;;;;;;5069720;28;20859;-68
2022/06/29 07:42:48;;;;;;;0.40;0.30;;;21.00;99.90;;;;;;5070432;28;20376;-68
2022/06/29 07:45:14;;;;;;;0.40;0.30;;;21.10;99.90;;;;;;5051250;28;20384;-69
2022/06/29 07:47:40;;;;;;;0.40;0.22;;;21.20;99.90;;;;;;5057338;28;20475;-69
2022/06/29 07:50:07;;;;;;;0.40;0.30;;;21.30;99.90;;;;;;5061353;28;20956;-68
2022/06/29 07:52:33;;;;;;;0.40;0.30;;;21.40;99.90;;;;;;5064745;28;20415;-69
2022/06/29 07:55:00;;;;;;;1.60;1.00;;;21.50;99.90;;;;;;5056055;28;20393;-68
2022/06/29 07:57:26;;;;;;;0.40;0.20;;;21.60;99.90;;;;;;5064344;28;20403;-68
2022/06/29 07:59:52;;;;;;;0.90;0.80;;;21.60;99.90;;;;;;5077192;28;20752;-68
2022/06/29 08:02:17;;;;;;;0.40;0.40;;;21.60;99.90;;;;;;5069415;28;20854;-67
2022/06/29 08:04:43;;;;;;;0.40;0.30;;;21.70;99.90;;;;;;5069389;28;20396;-68
2022/06/29 08:07:09;;;;;;;0.80;0.50;;;21.60;99.90;;;;;;5070440;28;20435;-68
2022/06/29 08:09:35;;;;;;;0.40;0.30;;;21.60;99.90;;;;;;5069195;28;20763;-69
2022/06/29 08:12:02;;;;;;;0.40;0.30;;;21.70;99.90;;;;;;5070549;28;20438;-69
2022/06/29 08:14:27;;;;;;;0.40;0.20;;;21.80;99.90;;;;;;5069305;28;20424;-68
2022/06/29 08:16:53;;;;;;;0.40;0.22;;;21.90;99.90;;;;;;5069136;28;20438;-68
2022/06/29 08:19:19;;;;;;;0.40;0.20;;;22.00;99.90;;;;;;5069864;28;20379;-67
2022/06/29 08:21:45;;;;;;;1.70;0.90;;;22.20;99.90;;;;;;5070497;28;20783;-69
2022/06/29 08:24:11;;;;;;;0.40;0.40;;;22.10;99.90;;;;;;5061355;28;20402;-69
2022/06/29 08:26:36;;;;;;;0.40;0.30;;;22.10;99.90;;;;;;5068501;28;20664;-68
2022/06/29 08:29:03;;;;;;;0.40;0.22;;;22.20;99.90;;;;;;5070280;28;20467;-68
2022/06/29 08:31:29;;;;;;;0.40;0.30;;;22.60;99.90;;;;;;5068570;28;20415;-68
2022/06/29 08:33:55;;;;;;;0.50;0.40;;;22.70;99.90;;;;;;5069563;28;20414;-69
2022/06/29 08:36:22;;;;;;;0.40;0.30;;;22.50;99.90;;;;;;5069272;28;20457;-68
2022/06/29 08:38:48;;;;;;;0.40;0.30;;;22.50;99.90;;;;;;5070052;28;20463;-69
2022/06/29 08:41:15;;;;;;;0.50;0.47;;;22.40;99.90;;;;;;5069621;28;20487;-69
2022/06/29 08:43:42;;;;;;;0.40;0.20;;;22.60;99.90;;;;;;5069390;28;20387;-68
2022/06/29 08:46:10;;;;;;;0.40;0.30;;;22.70;99.90;;;;;;5069505;28;20399;-69
2022/06/29 08:48:36;;;;;;;0.70;0.70;;;22.70;99.90;;;;;;5068492;28;20400;-69
2022/06/29 08:51:03;;;;;;;0.43;0.37;;;22.60;99.90;;;;;;5069572;28;20805;-69
2022/06/29 08:53:28;;;;;;;0.70;0.70;;;22.60;99.90;;;;;;5066726;28;20415;-68
2022/06/29 08:55:55;;;;;;;1.50;1.20;;;22.70;99.90;;;;;;5061171;28;20406;-69
2022/06/29 08:58:25;;;;;;;0.40;0.30;;;22.80;99.90;;;;;;5059016;28;20406;-67
2022/06/29 09:00:51;;;;;;;0.40;0.30;;;23.00;99.90;;;;;;5070769;28;20428;-68
2022/06/29 09:03:22;;;;;;;0.40;0.20;;;23.10;99.90;;;;;;5072496;28;20408;-67
2022/06/29 09:05:48;;;;;;;0.40;0.20;;;22.90;99.90;;;;;;5071425;28;20396;-68
2022/06/29 09:08:15;;;;;;;0.40;0.30;;;22.70;99.90;;;;;;5063764;28;20423;-68
2022/06/29 09:10:41;;;;;;;0.43;0.32;;;22.90;99.90;;;;;;5072118;28;20400;-69
2022/06/29 09:13:08;;;;;;;0.40;0.30;;;22.90;99.90;;;;;;5071891;28;20898;-68
2022/06/29 09:15:41;;;;;;;0.40;0.20;;;23.00;99.90;;;;;;5066381;28;20435;-69
2022/06/29 09:18:25;;;;;;;0.40;0.20;;;22.80;99.90;;;;;;5063649;28;20403;-68
2022/06/29 09:21:03;;;;;;;0.40;0.30;;;22.80;99.90;;;;;;5069061;28;20449;-69
2022/06/29 09:23:30;;;;;;;0.40;0.30;;;22.80;99.90;;;;;;5071502;28;20430;-69
2022/06/29 09:25:56;;;;;;;0.40;0.20;;;22.80;99.90;;;;;;5068515;28;20475;-69
2022/06/29 09:28:24;;;;;;;0.40;0.30;;;22.80;99.90;;;;;;5054900;28;20394;-68
2022/06/29 09:30:54;;;;;;;0.40;0.30;;;23.10;99.90;;;;;;5070300;28;20391;-68
2022/06/29 09:33:22;;;;;;;0.40;0.20;;;23.10;99.90;;;;;;5063558;28;20919;-67
2022/06/29 09:36:06;;;;;;;0.40;0.30;;;23.20;99.90;;;;;;5056073;28;20453;-68
2022/06/29 09:38:32;;;;;;;0.40;0.30;;;23.10;99.90;;;;;;5071667;28;20484;-68
2022/06/29 09:41:10;;;;;;;0.40;0.20;;;23.30;99.90;;;;;;5068038;28;20398;-70
2022/06/29 09:43:38;;;;;;;0.40;0.20;;;23.40;99.90;;;;;;5070562;28;20737;-68
2022/06/29 09:46:05;;;;;;;0.40;0.30;;;23.40;99.90;;;;;;5076318;28;20885;-69
2022/06/29 09:48:33;;;;;;;0.40;0.20;;;23.40;99.90;;;;;;5069521;28;20773;-69
2022/06/29 09:51:00;;;;;;;0.40;0.30;;;23.40;99.90;;;;;;5076074;28;20407;-68
2022/06/29 09:53:39;;;;;;;0.50;0.50;;;23.50;99.90;;;;;;5083496;28;20393;-68
2022/06/29 09:56:07;;;;;;;0.40;0.30;;;23.50;99.90;;;;;;5071869;28;20577;-69
2022/06/29 09:58:46;;;;;;;0.40;0.30;;;23.80;99.90;;;;;;5071315;28;20460;-70
2022/06/29 10:03:59;;;;;;;0.40;0.20;;;23.60;99.90;;;;;;5064747;28;20895;-71
2022/06/29 10:06:25;;;;;;;0.40;0.20;;;23.70;99.90;;;;;;5040823;28;20987;-68
2022/06/29 10:08:52;;;;;;;0.40;0.20;;;23.80;99.90;;;;;;5056595;28;20411;-68
2022/06/29 10:14:41;;;;;;;0.40;0.20;;;23.50;99.90;;;;;;5065598;28;20545;-67
2022/06/29 10:17:18;;;;;;;0.40;0.30;;;23.50;99.90;;;;;;5071768;28;20392;-69
2022/06/29 10:20:14;;;;;;;0.40;0.20;;;23.50;99.90;;;;;;5072072;28;20388;-68
2022/06/29 10:22:41;;;;;;;0.40;0.20;;;23.50;99.90;;;;;;5064909;28;20439;-68
2022/06/29 10:25:10;;;;;;;0.60;0.60;;;23.60;99.90;;;;;;5071433;28;20438;-68
2022/06/29 10:27:36;;;;;;;0.40;0.30;;;23.70;99.90;;;;;;5069592;28;20403;-69
2022/06/29 10:30:23;;;;;;;0.40;0.20;;;23.80;99.90;;;;;;5069075;28;20803;-67
2022/06/29 10:32:50;;;;;;;0.40;0.20;;;24.00;99.90;;;;;;5068958;28;20416;-68
2022/06/29 10:35:16;;;;;;;0.40;0.30;;;24.00;99.90;;;;;;5071302;28;20784;-67
2022/06/29 10:37:53;;;;;;;0.40;0.30;;;24.10;99.90;;;;;;5064534;28;20426;-67
2022/06/29 10:40:24;;;;;;;0.40;0.20;;;24.30;99.90;;;;;;5069389;28;20931;-67
2022/06/29 10:43:10;;;;;;;0.40;0.40;;;24.50;99.90;;;;;;5071548;28;20418;-69
2022/06/29 10:45:42;;;;;;;0.40;0.20;;;24.50;99.90;;;;;;5070454;28;21178;-68
2022/06/29 10:48:08;;;;;;;0.40;0.20;;;24.70;99.90;;;;;;5071384;28;20853;-70
2022/06/29 10:50:35;;;;;;;0.43;0.37;;;24.70;99.90;;;;;;5070751;28;20496;-68
2022/06/29 10:53:04;;;;;;;0.40;0.30;;;24.70;99.90;;;;;;5071561;28;20720;-69
2022/06/29 10:55:31;;;;;;;0.40;0.30;;;24.60;99.90;;;;;;5070629;28;20392;-68
2022/06/29 10:57:58;;;;;;;0.40;0.20;;;24.60;99.90;;;;;;5071317;28;20384;-68
2022/06/29 11:00:27;;;;;;;0.40;0.30;;;24.50;99.30;;;;;;5070634;28;20376;-71
2022/06/29 11:02:53;;;;;;;0.40;0.30;;;24.70;98.10;;;;;;5070031;28;20400;-68
2022/06/29 11:05:19;;;;;;;0.40;0.30;;;24.80;99.90;;;;;;5059799;28;20456;-67
2022/06/29 11:13:38;;;;;;;0.40;0.20;;;25.10;98.90;;;;;;5059912;28;20386;-68
2022/06/29 11:16:05;;;;;;;0.50;0.50;;;25.10;99.20;;;;;;5059428;28;20474;-68
2022/06/29 11:18:32;;;;;;;0.40;0.20;;;25.20;99.50;;;;;;5050636;28;20386;-68
2022/06/29 11:21:03;;;;;;;0.50;0.40;;;25.50;99.90;;;;;;5064551;28;20473;-68
2022/06/29 11:23:30;;;;;;;0.40;0.27;;;25.70;96.80;;;;;;5050719;28;20385;-70
2022/06/29 11:25:57;;;;;;;0.40;0.30;;;25.70;92.60;;;;;;5051085;28;20390;-68
2022/06/29 11:28:28;;;;;;;0.40;0.30;;;25.50;92.40;;;;;;5049885;28;20385;-69
2022/06/29 11:31:01;;;;;;;0.40;0.30;;;25.40;92.80;;;;;;5051299;28;20373;-67
2022/06/29 11:33:32;;;;;;;0.40;0.30;;;25.70;91.10;;;;;;5049739;28;20432;-67
2022/06/29 11:36:06;;;;;;;0.40;0.30;;;26.00;88.80;;;;;;5050995;28;20381;-68
2022/06/29 11:38:41;;;;;;;0.40;0.30;;;26.50;87.60;;;;;;5050162;28;20436;-67
2022/06/29 11:41:25;;;;;;;0.40;0.20;;;26.90;81.20;;;;;;5058789;28;20501;-68
2022/06/29 11:44:02;;;;;;;0.70;0.70;;;26.70;87.00;;;;;;5055083;28;20387;-69
2022/06/29 11:46:31;;;;;;;0.40;0.30;;;26.60;89.50;;;;;;5057172;28;20405;-68
2022/06/29 11:51:58;;;;;;;0.40;0.20;;;27.10;79.70;;;;;;5050729;28;20373;-67
2022/06/29 11:54:40;;;;;;;0.40;0.20;;;28.00;77.30;;;;;;5055634;28;20395;-67
2022/06/29 11:57:15;;;;;;;0.40;0.20;;;29.10;76.30;;;;;;5059915;28;20445;-70
2022/06/29 11:59:44;;;;;;;0.40;0.20;;;28.40;78.00;;;;;;5062392;28;20415;-66
2022/06/29 12:02:11;;;;;;;0.40;0.20;;;27.70;81.20;;;;;;5067640;28;20448;-68
2022/06/29 12:04:38;;;;;;;0.40;0.30;;;27.10;87.60;;;;;;5055567;28;20535;-67
2022/06/29 12:07:11;;;;;;;0.40;0.30;;;27.10;90.80;;;;;;5050398;28;20409;-67
2022/06/29 12:09:39;;;;;;;0.40;0.30;;;27.10;92.10;;;;;;5049629;28;20384;-67
2022/06/29 12:12:07;;;;;;;0.40;0.20;;;26.70;91.70;;;;;;5050235;28;20960;-67
2022/06/29 12:14:33;;;;;;;0.40;0.20;;;28.20;84.60;;;;;;5049597;28;20503;-66
2022/06/29 12:16:58;;;;;;;0.40;0.20;;;29.50;75.90;;;;;;5052645;28;20498;-68
2022/06/29 12:19:24;;;;;;;0.40;0.20;;;29.40;75.10;;;;;;5056236;28;20536;-68
2022/06/29 12:21:50;;;;;;;0.40;0.20;;;28.70;78.00;;;;;;5063257;28;20474;-68
2022/06/29 12:24:17;;;;;;;0.40;0.30;;;27.90;81.40;;;;;;5041816;28;20429;-67
2022/06/29 12:26:44;;;;;;;0.40;0.20;;;26.80;83.20;;;;;;5051599;28;20401;-68
2022/06/29 12:29:10;;;;;;;0.40;0.20;;;26.80;90.60;;;;;;5050422;28;20424;-68
2022/06/29 12:31:36;;;;;;;0.55;0.30;;;26.70;87.60;;;;;;5051000;28;21156;-67
2022/06/29 12:34:03;;;;;;;0.40;0.30;;;26.40;90.10;;;;;;5054251;28;20753;-67
2022/06/29 12:36:29;;;;;;;0.40;0.30;;;26.20;92.50;;;;;;5053270;28;20866;-69
2022/06/29 12:38:56;;;;;;;0.40;0.22;;;26.30;92.20;;;;;;5053948;28;20374;-67
2022/06/29 12:41:21;;;;;;;0.43;0.28;;;26.40;90.60;;;;;;5053888;28;20487;-66
2022/06/29 12:43:47;;;;;;;0.40;0.20;;;26.50;90.50;;;;;;5054006;28;20385;-67
2022/06/29 12:46:13;;;;;;;0.40;0.20;;;26.40;89.90;;;;;;5053704;28;20463;-66
2022/06/29 12:48:39;;;;;;;0.40;0.30;;;26.10;90.50;;;;;;5052867;28;20393;-67
2022/06/29 12:51:05;;;;;;;0.40;0.23;;;26.10;91.40;;;;;;5053951;28;20381;-66
2022/06/29 12:53:31;;;;;;;0.40;0.30;;;26.10;92.80;;;;;;5070174;28;20441;-66
2022/06/29 12:55:59;;;;;;;0.40;0.20;;;26.10;91.20;;;;;;5074065;28;20387;-67
2022/06/29 12:58:25;;;;;;;0.40;0.30;;;26.20;92.10;;;;;;5072631;28;20471;-66
2022/06/29 13:00:51;;;;;;;0.40;0.30;;;26.10;91.80;;;;;;5073120;28;20437;-66
2022/06/29 13:03:17;;;;;;;0.40;0.30;;;26.20;90.70;;;;;;5073404;28;20388;-66
2022/06/29 13:05:43;;;;;;;0.40;0.30;;;26.30;90.80;;;;;;5073031;28;20387;-67
2022/06/29 13:08:10;;;;;;;0.40;0.30;;;26.20;90.30;;;;;;5061760;28;20496;-67
2022/06/29 13:10:36;;;;;;;0.40;0.30;;;26.50;90.40;;;;;;5060807;28;20461;-66